sensor_id;sensor_type;location;lat;lon;timestamp;pressure;altitude;pressure_sealevel;temperature;humidity
84049;BME280;74136;51.684;7.862;2024-03-22T00:01:48;101477.97;;;8.39;89.35
84049;BME280;74136;51.684;7.862;2024-03-22T00:04:14;101473.72;;;8.36;89.47
84049;BME280;74136;51.684;7.862;2024-03-22T00:06:41;101466.53;;;8.35;89.29
84049;BME280;74136;51.684;7.862;2024-03-22T00:09:09;101460.84;;;8.37;89.43
84049;BME280;74136;51.684;7.862;2024-03-22T00:11:35;101453.88;;;8.34;89.73
84049;BME280;74136;51.684;7.862;2024-03-22T00:14:02;101453.88;;;8.34;89.89
84049;BME280;74136;51.684;7.862;2024-03-22T00:16:29;101453.22;;;8.32;89.64
84049;BME280;74136;51.684;7.862;2024-03-22T00:18:55;101455.13;;;8.32;89.61
84049;BME280;74136;51.684;7.862;2024-03-22T00:21:22;101451.69;;;8.30;89.98
84049;BME280;74136;51.684;7.862;2024-03-22T00:23:49;101445.59;;;8.28;90.50
84049;BME280;74136;51.684;7.862;2024-03-22T00:26:15;101445.16;;;8.31;90.98
84049;BME280;74136;51.684;7.862;2024-03-22T00:28:41;101441.41;;;8.32;90.74
84049;BME280;74136;51.684;7.862;2024-03-22T00:31:08;101434.66;;;8.34;90.31
84049;BME280;74136;51.684;7.862;2024-03-22T00:33:35;101440.81;;;8.36;90.18
84049;BME280;74136;51.684;7.862;2024-03-22T00:36:01;101446.09;;;8.38;90.70
84049;BME280;74136;51.684;7.862;2024-03-22T00:38:27;101440.38;;;8.39;90.39
84049;BME280;74136;51.684;7.862;2024-03-22T00:40:54;101422.47;;;8.44;90.38
84049;BME280;74136;51.684;7.862;2024-03-22T00:43:20;101424.84;;;8.47;90.37
84049;BME280;74136;51.684;7.862;2024-03-22T00:45:47;101422.53;;;8.50;90.33
84049;BME280;74136;51.684;7.862;2024-03-22T00:48:13;101410.94;;;8.55;90.18
84049;BME280;74136;51.684;7.862;2024-03-22T00:50:40;101408.84;;;8.57;89.85
84049;BME280;74136;51.684;7.862;2024-03-22T00:53:06;101406.94;;;8.57;89.81
84049;BME280;74136;51.684;7.862;2024-03-22T00:55:34;101405.91;;;8.58;89.95
84049;BME280;74136;51.684;7.862;2024-03-22T00:58:00;101390.28;;;8.59;90.06
84049;BME280;74136;51.684;7.862;2024-03-22T01:00:27;101394.94;;;8.65;89.75
84049;BME280;74136;51.684;7.862;2024-03-22T01:02:53;101383.56;;;8.68;89.89
84049;BME280;74136;51.684;7.862;2024-03-22T01:05:19;101373.44;;;8.68;89.47
84049;BME280;74136;51.684;7.862;2024-03-22T01:07:45;101378.72;;;8.70;89.78
84049;BME280;74136;51.684;7.862;2024-03-22T01:10:12;101372.19;;;8.71;89.59
84049;BME280;74136;51.684;7.862;2024-03-22T01:12:39;101372.00;;;8.72;89.53
84049;BME280;74136;51.684;7.862;2024-03-22T01:15:06;101372.59;;;8.74;89.39
84049;BME280;74136;51.684;7.862;2024-03-22T01:17:33;101368.63;;;8.77;89.27
84049;BME280;74136;51.684;7.862;2024-03-22T01:19:59;101361.88;;;8.80;89.41
84049;BME280;74136;51.684;7.862;2024-03-22T01:22:26;101362.53;;;8.82;89.43
84049;BME280;74136;51.684;7.862;2024-03-22T01:24:52;101364.41;;;8.88;88.67
84049;BME280;74136;51.684;7.862;2024-03-22T01:27:19;101360.44;;;8.90;88.65
84049;BME280;74136;51.684;7.862;2024-03-22T01:29:46;101354.72;;;8.92;88.40
84049;BME280;74136;51.684;7.862;2024-03-22T01:32:13;101347.56;;;8.91;88.45
84049;BME280;74136;51.684;7.862;2024-03-22T01:34:39;101353.47;;;8.94;88.35
84049;BME280;74136;51.684;7.862;2024-03-22T01:37:06;101349.03;;;8.93;88.82
84049;BME280;74136;51.684;7.862;2024-03-22T01:39:32;101348.00;;;8.94;88.48
84049;BME280;74136;51.684;7.862;2024-03-22T01:41:58;101338.91;;;8.94;88.34
84049;BME280;74136;51.684;7.862;2024-03-22T01:44:28;101338.06;;;8.93;88.30
84049;BME280;74136;51.684;7.862;2024-03-22T01:46:54;101321.59;;;8.93;88.79
84049;BME280;74136;51.684;7.862;2024-03-22T01:49:21;101317.78;;;8.94;88.67
84049;BME280;74136;51.684;7.862;2024-03-22T01:51:48;101318.41;;;8.96;88.72
84049;BME280;74136;51.684;7.862;2024-03-22T01:54:15;101308.06;;;8.98;88.69
84049;BME280;74136;51.684;7.862;2024-03-22T01:56:42;101297.72;;;9.00;88.32
84049;BME280;74136;51.684;7.862;2024-03-22T01:59:09;101299.44;;;9.01;88.11
84049;BME280;74136;51.684;7.862;2024-03-22T02:01:35;101295.41;;;9.04;88.61
84049;BME280;74136;51.684;7.862;2024-03-22T02:04:02;101284.66;;;9.02;88.40
84049;BME280;74136;51.684;7.862;2024-03-22T02:06:28;101282.09;;;9.07;88.76
84049;BME280;74136;51.684;7.862;2024-03-22T02:08:56;101274.28;;;9.11;88.68
84049;BME280;74136;51.684;7.862;2024-03-22T02:11:23;101272.00;;;9.15;88.92
84049;BME280;74136;51.684;7.862;2024-03-22T02:13:50;101258.66;;;9.18;88.50
84049;BME280;74136;51.684;7.862;2024-03-22T02:16:16;101259.31;;;9.20;88.78
84049;BME280;74136;51.684;7.862;2024-03-22T02:18:43;101254.44;;;9.22;88.86
84049;BME280;74136;51.684;7.862;2024-03-22T02:21:10;101252.34;;;9.24;88.47
84049;BME280;74136;51.684;7.862;2024-03-22T02:23:38;101252.97;;;9.26;88.73
84049;BME280;74136;51.684;7.862;2024-03-22T02:26:06;101251.47;;;9.30;88.67
84049;BME280;74136;51.684;7.862;2024-03-22T02:28:33;101244.94;;;9.31;88.27
84049;BME280;74136;51.684;7.862;2024-03-22T02:31:00;101240.28;;;9.32;88.42
84049;BME280;74136;51.684;7.862;2024-03-22T02:33:26;101241.97;;;9.33;88.62
84049;BME280;74136;51.684;7.862;2024-03-22T02:35:52;101231.19;;;9.31;88.56
84049;BME280;74136;51.684;7.862;2024-03-22T02:38:19;101229.50;;;9.37;88.74
84049;BME280;74136;51.684;7.862;2024-03-22T02:40:49;101231.41;;;9.36;88.32
84049;BME280;74136;51.684;7.862;2024-03-22T02:43:15;101241.09;;;9.39;89.17
84049;BME280;74136;51.684;7.862;2024-03-22T02:45:43;101233.72;;;9.39;88.43
84049;BME280;74136;51.684;7.862;2024-03-22T02:48:09;101224.88;;;9.37;88.36
84049;BME280;74136;51.684;7.862;2024-03-22T02:50:37;101226.78;;;9.37;88.76
84049;BME280;74136;51.684;7.862;2024-03-22T02:53:04;101232.25;;;9.37;88.53
84049;BME280;74136;51.684;7.862;2024-03-22T02:55:36;101222.13;;;9.37;88.55
84049;BME280;74136;51.684;7.862;2024-03-22T02:58:03;101218.06;;;9.40;88.58
84049;BME280;74136;51.684;7.862;2024-03-22T03:00:29;101218.94;;;9.40;88.67
84049;BME280;74136;51.684;7.862;2024-03-22T03:02:55;101207.09;;;9.40;88.42
84049;BME280;74136;51.684;7.862;2024-03-22T03:05:22;101200.75;;;9.39;88.92
84049;BME280;74136;51.684;7.862;2024-03-22T03:07:51;101189.75;;;9.39;88.83
84049;BME280;74136;51.684;7.862;2024-03-22T03:10:17;101190.63;;;9.40;88.48
84049;BME280;74136;51.684;7.862;2024-03-22T03:12:43;101189.75;;;9.39;89.14
84049;BME280;74136;51.684;7.862;2024-03-22T03:15:09;101190.84;;;9.38;89.09
84049;BME280;74136;51.684;7.862;2024-03-22T03:17:36;101196.34;;;9.38;89.21
84049;BME280;74136;51.684;7.862;2024-03-22T03:20:02;101198.25;;;9.38;89.23
84049;BME280;74136;51.684;7.862;2024-03-22T03:22:34;101192.50;;;9.39;89.08
84049;BME280;74136;51.684;7.862;2024-03-22T03:25:01;101193.59;;;9.38;88.98
84049;BME280;74136;51.684;7.862;2024-03-22T03:27:27;101193.81;;;9.37;88.71
84049;BME280;74136;51.684;7.862;2024-03-22T03:29:53;101185.34;;;9.38;89.43
84049;BME280;74136;51.684;7.862;2024-03-22T03:32:19;101187.88;;;9.40;89.10
84049;BME280;74136;51.684;7.862;2024-03-22T03:34:45;101178.78;;;9.39;89.48
84049;BME280;74136;51.684;7.862;2024-03-22T03:37:12;101166.75;;;9.47;89.73
84049;BME280;74136;51.684;7.862;2024-03-22T03:39:38;101172.41;;;9.52;89.26
84049;BME280;74136;51.684;7.862;2024-03-22T03:42:04;101167.13;;;9.57;89.38
84049;BME280;74136;51.684;7.862;2024-03-22T03:44:31;101154.88;;;9.60;89.48
84049;BME280;74136;51.684;7.862;2024-03-22T03:46:57;101158.63;;;9.65;89.17
84049;BME280;74136;51.684;7.862;2024-03-22T03:49:23;101150.81;;;9.69;89.13
84049;BME280;74136;51.684;7.862;2024-03-22T03:51:49;101141.91;;;9.73;88.55
84049;BME280;74136;51.684;7.862;2024-03-22T03:54:15;101136.19;;;9.75;88.88
84049;BME280;74136;51.684;7.862;2024-03-22T03:56:42;101135.13;;;9.76;88.83
84049;BME280;74136;51.684;7.862;2024-03-22T03:59:08;101128.56;;;9.77;88.93
84049;BME280;74136;51.684;7.862;2024-03-22T04:01:34;101127.31;;;9.73;88.65
84049;BME280;74136;51.684;7.862;2024-03-22T04:04:02;101138.09;;;9.74;89.20
84049;BME280;74136;51.684;7.862;2024-03-22T04:06:29;101130.47;;;9.76;88.43
84049;BME280;74136;51.684;7.862;2024-03-22T04:08:55;101124.34;;;9.74;88.85
84049;BME280;74136;51.684;7.862;2024-03-22T04:11:21;101122.91;;;9.72;88.74
84049;BME280;74136;51.684;7.862;2024-03-22T04:13:47;101119.53;;;9.70;89.10
84049;BME280;74136;51.684;7.862;2024-03-22T04:16:14;101115.94;;;9.69;88.84
84049;BME280;74136;51.684;7.862;2024-03-22T04:18:40;101107.91;;;9.68;88.58
84049;BME280;74136;51.684;7.862;2024-03-22T04:21:06;101108.13;;;9.66;89.38
84049;BME280;74136;51.684;7.862;2024-03-22T04:23:32;101090.78;;;9.66;89.02
84049;BME280;74136;51.684;7.862;2024-03-22T04:26:00;101092.69;;;9.65;89.36
84049;BME280;74136;51.684;7.862;2024-03-22T04:28:27;101087.19;;;9.65;88.90
84049;BME280;74136;51.684;7.862;2024-03-22T04:31:04;101078.94;;;9.65;89.44
84049;BME280;74136;51.684;7.862;2024-03-22T04:33:32;101074.09;;;9.67;89.38
84049;BME280;74136;51.684;7.862;2024-03-22T04:35:59;101076.84;;;9.67;89.16
84049;BME280;74136;51.684;7.862;2024-03-22T04:38:27;101078.94;;;9.65;89.42
84049;BME280;74136;51.684;7.862;2024-03-22T04:40:54;101081.28;;;9.62;89.66
84049;BME280;74136;51.684;7.862;2024-03-22T04:43:21;101068.84;;;9.59;89.47
84049;BME280;74136;51.684;7.862;2024-03-22T04:45:47;101066.31;;;9.58;89.61
84049;BME280;74136;51.684;7.862;2024-03-22T04:48:16;101060.59;;;9.59;89.29
84049;BME280;74136;51.684;7.862;2024-03-22T04:50:42;101057.44;;;9.56;89.72
84049;BME280;74136;51.684;7.862;2024-03-22T04:53:09;101052.16;;;9.54;89.81
84049;BME280;74136;51.684;7.862;2024-03-22T04:55:35;101062.09;;;9.55;90.10
84049;BME280;74136;51.684;7.862;2024-03-22T04:58:01;101064.00;;;9.55;89.83
84049;BME280;74136;51.684;7.862;2024-03-22T05:00:28;101063.13;;;9.61;90.13
84049;BME280;74136;51.684;7.862;2024-03-22T05:02:54;101067.53;;;9.68;89.81
84049;BME280;74136;51.684;7.862;2024-03-22T05:05:21;101065.19;;;9.72;89.79
84049;BME280;74136;51.684;7.862;2024-03-22T05:07:47;101057.53;;;9.74;89.44
84049;BME280;74136;51.684;7.862;2024-03-22T05:10:13;101056.28;;;9.76;89.51
84049;BME280;74136;51.684;7.862;2024-03-22T05:12:40;101050.13;;;9.81;89.22
84049;BME280;74136;51.684;7.862;2024-03-22T05:15:06;101046.31;;;9.82;89.11
84049;BME280;74136;51.684;7.862;2024-03-22T05:17:33;101044.41;;;9.82;89.25
84049;BME280;74136;51.684;7.862;2024-03-22T05:19:59;101040.13;;;9.86;88.96
84049;BME280;74136;51.684;7.862;2024-03-22T05:22:26;101038.88;;;9.89;89.04
84049;BME280;74136;51.684;7.862;2024-03-22T05:24:52;101039.50;;;9.91;88.79
84049;BME280;74136;51.684;7.862;2024-03-22T05:27:18;101040.72;;;9.95;89.15
84049;BME280;74136;51.684;7.862;2024-03-22T05:29:44;101041.56;;;9.96;88.72
84049;BME280;74136;51.684;7.862;2024-03-22T05:32:11;101040.28;;;9.98;88.88
84049;BME280;74136;51.684;7.862;2024-03-22T05:34:37;101039.84;;;10.01;88.85
84049;BME280;74136;51.684;7.862;2024-03-22T05:37:03;101020.81;;;10.00;88.62
84049;BME280;74136;51.684;7.862;2024-03-22T05:39:29;101035.81;;;10.04;88.60
84049;BME280;74136;51.684;7.862;2024-03-22T05:41:56;101035.56;;;10.05;88.30
84049;BME280;74136;51.684;7.862;2024-03-22T05:44:22;101034.28;;;10.08;88.10
84049;BME280;74136;51.684;7.862;2024-03-22T05:46:49;101040.41;;;10.10;88.08
84049;BME280;74136;51.684;7.862;2024-03-22T05:49:16;101042.94;;;10.11;87.97
84049;BME280;74136;51.684;7.862;2024-03-22T05:51:42;101037.84;;;10.15;87.43
84049;BME280;74136;51.684;7.862;2024-03-22T05:54:09;101038.88;;;10.20;87.70
84049;BME280;74136;51.684;7.862;2024-03-22T05:56:35;101031.03;;;10.24;87.45
84049;BME280;74136;51.684;7.862;2024-03-22T05:59:01;101033.34;;;10.27;87.37
84049;BME280;74136;51.684;7.862;2024-03-22T06:01:28;101029.91;;;10.32;87.06
84049;BME280;74136;51.684;7.862;2024-03-22T06:03:54;101035.81;;;10.35;87.16
84049;BME280;74136;51.684;7.862;2024-03-22T06:06:20;101041.03;;;10.43;86.41
84049;BME280;74136;51.684;7.862;2024-03-22T06:08:51;101031.25;;;10.47;86.69
84049;BME280;74136;51.684;7.862;2024-03-22T06:11:22;101031.81;;;10.56;85.89
84049;BME280;74136;51.684;7.862;2024-03-22T06:13:49;101036.19;;;10.64;85.89
84049;BME280;74136;51.684;7.862;2024-03-22T06:16:15;101042.69;;;10.69;85.44
84049;BME280;74136;51.684;7.862;2024-03-22T06:18:41;101036.50;;;10.74;84.69
84049;BME280;74136;51.684;7.862;2024-03-22T06:21:07;101032.00;;;10.79;84.88
84049;BME280;74136;51.684;7.862;2024-03-22T06:23:34;101027.25;;;10.86;84.16
84049;BME280;74136;51.684;7.862;2024-03-22T06:26:00;101024.91;;;10.90;83.93
84049;BME280;74136;51.684;7.862;2024-03-22T06:28:27;101028.41;;;10.97;83.49
84049;BME280;74136;51.684;7.862;2024-03-22T06:30:54;101018.88;;;11.00;83.11
84049;BME280;74136;51.684;7.862;2024-03-22T06:33:21;101006.34;;;11.04;82.54
84049;BME280;74136;51.684;7.862;2024-03-22T06:35:47;101006.25;;;11.10;82.82
84049;BME280;74136;51.684;7.862;2024-03-22T06:38:13;101003.88;;;11.14;82.02
84049;BME280;74136;51.684;7.862;2024-03-22T06:40:40;100996.81;;;11.18;82.25
84049;BME280;74136;51.684;7.862;2024-03-22T06:43:06;100996.97;;;11.23;82.38
84049;BME280;74136;51.684;7.862;2024-03-22T06:45:32;101003.94;;;11.25;81.70
84049;BME280;74136;51.684;7.862;2024-03-22T06:47:58;100998.56;;;11.30;80.87
84049;BME280;74136;51.684;7.862;2024-03-22T06:50:25;100995.38;;;11.34;80.63
84049;BME280;74136;51.684;7.862;2024-03-22T06:52:51;100998.50;;;11.37;80.76
84049;BME280;74136;51.684;7.862;2024-03-22T06:55:20;101001.00;;;11.39;80.74
84049;BME280;74136;51.684;7.862;2024-03-22T06:57:48;101006.06;;;11.42;80.65
84049;BME280;74136;51.684;7.862;2024-03-22T07:00:16;100987.59;;;11.42;80.50
84049;BME280;74136;51.684;7.862;2024-03-22T07:02:42;101000.09;;;11.45;80.30
84049;BME280;74136;51.684;7.862;2024-03-22T07:05:09;100993.63;;;11.51;80.40
84049;BME280;74136;51.684;7.862;2024-03-22T07:07:36;100995.69;;;11.55;79.93
84049;BME280;74136;51.684;7.862;2024-03-22T07:10:03;100998.59;;;11.60;79.75
84049;BME280;74136;51.684;7.862;2024-03-22T07:12:29;100994.91;;;11.66;79.34
84049;BME280;74136;51.684;7.862;2024-03-22T07:14:56;101000.09;;;11.75;79.30
84049;BME280;74136;51.684;7.862;2024-03-22T07:17:22;100984.91;;;11.84;79.45
84049;BME280;74136;51.684;7.862;2024-03-22T07:19:51;100987.81;;;11.89;79.05
84049;BME280;74136;51.684;7.862;2024-03-22T07:22:18;100996.59;;;11.97;78.02
84049;BME280;74136;51.684;7.862;2024-03-22T07:24:44;100999.59;;;12.08;78.22
84049;BME280;74136;51.684;7.862;2024-03-22T07:27:11;100994.69;;;12.10;77.63
84049;BME280;74136;51.684;7.862;2024-03-22T07:29:37;101004.19;;;12.14;77.46
84049;BME280;74136;51.684;7.862;2024-03-22T07:32:04;100996.75;;;12.14;77.72
84049;BME280;74136;51.684;7.862;2024-03-22T07:34:31;100991.34;;;12.19;77.23
84049;BME280;74136;51.684;7.862;2024-03-22T07:36:58;100981.78;;;12.22;76.73
84049;BME280;74136;51.684;7.862;2024-03-22T07:39:24;100979.25;;;12.20;75.38
84049;BME280;74136;51.684;7.862;2024-03-22T07:41:50;100976.63;;;12.25;75.58
84049;BME280;74136;51.684;7.862;2024-03-22T07:44:17;100973.28;;;12.35;76.11
84049;BME280;74136;51.684;7.862;2024-03-22T07:46:46;100971.47;;;12.40;75.35
84049;BME280;74136;51.684;7.862;2024-03-22T07:49:12;100965.84;;;12.47;75.01
84049;BME280;74136;51.684;7.862;2024-03-22T07:51:39;100970.84;;;12.50;75.10
84049;BME280;74136;51.684;7.862;2024-03-22T07:54:05;100961.03;;;12.54;74.25
84049;BME280;74136;51.684;7.862;2024-03-22T07:56:31;100969.78;;;12.63;74.85
84049;BME280;74136;51.684;7.862;2024-03-22T07:58:58;100967.50;;;12.60;73.52
84049;BME280;74136;51.684;7.862;2024-03-22T08:01:24;100971.22;;;12.65;74.01
84049;BME280;74136;51.684;7.862;2024-03-22T08:03:51;100978.53;;;12.71;73.97
84049;BME280;74136;51.684;7.862;2024-03-22T08:06:17;100969.06;;;12.79;73.48
84049;BME280;74136;51.684;7.862;2024-03-22T08:08:44;100970.75;;;12.80;73.60
84049;BME280;74136;51.684;7.862;2024-03-22T08:11:10;100967.47;;;12.83;73.16
84049;BME280;74136;51.684;7.862;2024-03-22T08:13:37;100971.91;;;12.96;72.69
84049;BME280;74136;51.684;7.862;2024-03-22T08:16:03;100975.13;;;13.04;72.60
84049;BME280;74136;51.684;7.862;2024-03-22T08:18:29;100975.38;;;13.15;73.16
84049;BME280;74136;51.684;7.862;2024-03-22T08:20:56;100963.22;;;13.16;72.18
84049;BME280;74136;51.684;7.862;2024-03-22T08:23:22;100970.31;;;13.23;70.99
84049;BME280;74136;51.684;7.862;2024-03-22T08:25:48;100966.78;;;13.28;70.74
84049;BME280;74136;51.684;7.862;2024-03-22T08:28:15;100967.13;;;13.43;70.50
84049;BME280;74136;51.684;7.862;2024-03-22T08:30:42;100972.13;;;13.58;70.25
84049;BME280;74136;51.684;7.862;2024-03-22T08:33:09;100972.44;;;13.61;69.87
84049;BME280;74136;51.684;7.862;2024-03-22T08:35:36;100968.50;;;13.57;68.06
84049;BME280;74136;51.684;7.862;2024-03-22T08:38:02;100962.72;;;13.59;67.24
84049;BME280;74136;51.684;7.862;2024-03-22T08:40:29;100947.97;;;13.53;67.65
84049;BME280;74136;51.684;7.862;2024-03-22T08:42:55;100946.19;;;13.47;66.72
84049;BME280;74136;51.684;7.862;2024-03-22T08:45:21;100950.53;;;13.43;67.67
84049;BME280;74136;51.684;7.862;2024-03-22T08:47:47;100940.31;;;13.43;66.73
84049;BME280;74136;51.684;7.862;2024-03-22T08:50:13;100939.03;;;13.34;66.05
84049;BME280;74136;51.684;7.862;2024-03-22T08:52:40;100934.34;;;13.35;66.67
84049;BME280;74136;51.684;7.862;2024-03-22T08:55:07;100931.22;;;13.31;66.84
84049;BME280;74136;51.684;7.862;2024-03-22T08:57:33;100935.31;;;13.29;66.60
84049;BME280;74136;51.684;7.862;2024-03-22T08:59:59;100935.91;;;13.31;67.26
84049;BME280;74136;51.684;7.862;2024-03-22T09:02:26;100929.06;;;13.33;66.59
84049;BME280;74136;51.684;7.862;2024-03-22T09:04:52;100937.25;;;13.28;66.26
84049;BME280;74136;51.684;7.862;2024-03-22T09:07:20;100924.50;;;13.27;66.79
84049;BME280;74136;51.684;7.862;2024-03-22T09:09:46;100933.75;;;13.33;67.48
84049;BME280;74136;51.684;7.862;2024-03-22T09:12:12;100929.63;;;13.47;66.07
84049;BME280;74136;51.684;7.862;2024-03-22T09:14:38;100930.19;;;13.49;65.79
84049;BME280;74136;51.684;7.862;2024-03-22T09:17:04;100929.88;;;13.62;65.88
84049;BME280;74136;51.684;7.862;2024-03-22T09:19:31;100923.94;;;13.70;65.66
84049;BME280;74136;51.684;7.862;2024-03-22T09:21:57;100932.34;;;13.75;66.10
84049;BME280;74136;51.684;7.862;2024-03-22T09:24:24;100915.75;;;13.75;65.53
84049;BME280;74136;51.684;7.862;2024-03-22T09:26:50;100921.28;;;13.75;65.64
84049;BME280;74136;51.684;7.862;2024-03-22T09:29:16;100926.72;;;13.87;65.22
84049;BME280;74136;51.684;7.862;2024-03-22T09:31:44;100915.59;;;13.99;65.60
84049;BME280;74136;51.684;7.862;2024-03-22T09:34:12;100912.97;;;13.92;65.87
84049;BME280;74136;51.684;7.862;2024-03-22T09:36:38;100909.22;;;13.98;65.40
84049;BME280;74136;51.684;7.862;2024-03-22T09:39:04;100911.41;;;14.13;65.47
84049;BME280;74136;51.684;7.862;2024-03-22T09:41:32;100907.09;;;14.05;64.72
84049;BME280;74136;51.684;7.862;2024-03-22T09:43:59;100899.59;;;14.01;65.51
84049;BME280;74136;51.684;7.862;2024-03-22T09:46:28;100897.22;;;14.09;65.76
84049;BME280;74136;51.684;7.862;2024-03-22T09:48:55;100889.25;;;14.13;65.00
84049;BME280;74136;51.684;7.862;2024-03-22T09:51:21;100897.63;;;14.35;64.96
84049;BME280;74136;51.684;7.862;2024-03-22T09:53:52;100878.91;;;14.42;63.95
84049;BME280;74136;51.684;7.862;2024-03-22T09:56:20;100877.88;;;14.48;63.66
84049;BME280;74136;51.684;7.862;2024-03-22T09:58:47;100887.63;;;14.34;63.93
84049;BME280;74136;51.684;7.862;2024-03-22T10:01:13;100875.25;;;14.03;64.19
84049;BME280;74136;51.684;7.862;2024-03-22T10:03:40;100870.44;;;14.15;64.86
84049;BME280;74136;51.684;7.862;2024-03-22T10:06:06;100875.50;;;14.18;64.06
84049;BME280;74136;51.684;7.862;2024-03-22T10:08:32;100877.91;;;14.31;63.15
84049;BME280;74136;51.684;7.862;2024-03-22T10:11:02;100881.19;;;14.28;63.93
84049;BME280;74136;51.684;7.862;2024-03-22T10:13:29;100869.28;;;14.44;63.71
84049;BME280;74136;51.684;7.862;2024-03-22T10:15:56;100864.25;;;14.41;63.81
84049;BME280;74136;51.684;7.862;2024-03-22T10:18:23;100873.53;;;14.52;63.34
84049;BME280;74136;51.684;7.862;2024-03-22T10:21:01;100870.06;;;14.62;63.68
84049;BME280;74136;51.684;7.862;2024-03-22T10:23:29;100862.78;;;14.39;62.71
84049;BME280;74136;51.684;7.862;2024-03-22T10:25:58;100863.78;;;14.49;62.65
84049;BME280;74136;51.684;7.862;2024-03-22T10:28:25;100844.03;;;14.63;62.51
84049;BME280;74136;51.684;7.862;2024-03-22T10:30:52;100848.59;;;14.74;62.78
84049;BME280;74136;51.684;7.862;2024-03-22T10:33:19;100847.44;;;14.70;61.67
84049;BME280;74136;51.684;7.862;2024-03-22T10:35:54;100841.41;;;14.73;61.95
84049;BME280;74136;51.684;7.862;2024-03-22T10:38:21;100833.84;;;15.12;62.49
84049;BME280;74136;51.684;7.862;2024-03-22T10:40:48;100831.03;;;15.39;61.76
84049;BME280;74136;51.684;7.862;2024-03-22T10:43:15;100826.34;;;15.66;61.47
84049;BME280;74136;51.684;7.862;2024-03-22T10:45:42;100840.72;;;15.63;60.00
84049;BME280;74136;51.684;7.862;2024-03-22T10:48:10;100827.22;;;15.45;60.36
84049;BME280;74136;51.684;7.862;2024-03-22T10:50:40;100833.03;;;15.43;60.20
84049;BME280;74136;51.684;7.862;2024-03-22T10:53:19;100813.38;;;15.45;60.75
84049;BME280;74136;51.684;7.862;2024-03-22T10:55:50;100825.25;;;15.67;60.23
84049;BME280;74136;51.684;7.862;2024-03-22T10:58:22;100824.09;;;15.63;59.84
84049;BME280;74136;51.684;7.862;2024-03-22T11:00:51;100821.00;;;15.33;59.80
84049;BME280;74136;51.684;7.862;2024-03-22T11:03:23;100816.69;;;15.47;60.23
84049;BME280;74136;51.684;7.862;2024-03-22T11:05:54;100808.66;;;15.18;59.43
84049;BME280;74136;51.684;7.862;2024-03-22T11:08:27;100822.09;;;15.05;60.50
84049;BME280;74136;51.684;7.862;2024-03-22T11:10:55;100819.88;;;15.02;60.83
84049;BME280;74136;51.684;7.862;2024-03-22T11:13:22;100810.22;;;15.09;60.46
84049;BME280;74136;51.684;7.862;2024-03-22T11:15:50;100809.97;;;15.11;60.28
84049;BME280;74136;51.684;7.862;2024-03-22T11:18:17;100806.66;;;15.14;61.10
84049;BME280;74136;51.684;7.862;2024-03-22T11:20:44;100807.28;;;14.94;60.20
84049;BME280;74136;51.684;7.862;2024-03-22T11:23:13;100803.44;;;15.22;61.10
84049;BME280;74136;51.684;7.862;2024-03-22T11:25:40;100792.72;;;15.36;59.97
84049;BME280;74136;51.684;7.862;2024-03-22T11:28:06;100795.31;;;15.42;59.92
84049;BME280;74136;51.684;7.862;2024-03-22T11:30:33;100791.88;;;15.30;59.78
84049;BME280;74136;51.684;7.862;2024-03-22T11:33:03;100798.19;;;15.25;60.16
84049;BME280;74136;51.684;7.862;2024-03-22T11:35:30;100799.94;;;15.32;59.58
84049;BME280;74136;51.684;7.862;2024-03-22T11:37:56;100793.22;;;15.54;61.27
84049;BME280;74136;51.684;7.862;2024-03-22T11:40:25;100795.41;;;15.84;59.75
84049;BME280;74136;51.684;7.862;2024-03-22T11:42:52;100793.19;;;15.86;59.57
84049;BME280;74136;51.684;7.862;2024-03-22T11:45:21;100796.81;;;15.87;60.85
84049;BME280;74136;51.684;7.862;2024-03-22T11:47:47;100792.88;;;15.51;60.51
84049;BME280;74136;51.684;7.862;2024-03-22T11:50:15;100800.19;;;15.30;61.42
84049;BME280;74136;51.684;7.862;2024-03-22T11:52:42;100785.28;;;15.09;61.45
84049;BME280;74136;51.684;7.862;2024-03-22T11:55:10;100784.63;;;15.24;62.05
84049;BME280;74136;51.684;7.862;2024-03-22T11:57:36;100782.13;;;15.27;61.52
84049;BME280;74136;51.684;7.862;2024-03-22T12:00:04;100790.09;;;15.19;61.61
84049;BME280;74136;51.684;7.862;2024-03-22T12:02:37;100788.25;;;15.03;62.59
84049;BME280;74136;51.684;7.862;2024-03-22T12:05:05;100786.03;;;15.00;62.79
84049;BME280;74136;51.684;7.862;2024-03-22T12:07:32;100783.34;;;14.83;62.98
84049;BME280;74136;51.684;7.862;2024-03-22T12:10:01;100778.31;;;14.58;64.32
84049;BME280;74136;51.684;7.862;2024-03-22T12:12:27;100773.88;;;14.35;65.01
84049;BME280;74136;51.684;7.862;2024-03-22T12:14:54;100777.91;;;14.28;65.48
84049;BME280;74136;51.684;7.862;2024-03-22T12:17:20;100789.88;;;14.11;66.10
84049;BME280;74136;51.684;7.862;2024-03-22T12:19:46;100776.88;;;14.12;67.30
84049;BME280;74136;51.684;7.862;2024-03-22T12:22:13;100778.22;;;14.09;67.37
84049;BME280;74136;51.684;7.862;2024-03-22T12:24:39;100785.06;;;13.85;68.07
84049;BME280;74136;51.684;7.862;2024-03-22T12:27:06;100778.53;;;13.74;68.81
84049;BME280;74136;51.684;7.862;2024-03-22T12:29:32;100778.63;;;13.63;69.29
84049;BME280;74136;51.684;7.862;2024-03-22T12:31:59;100769.66;;;13.39;70.39
84049;BME280;74136;51.684;7.862;2024-03-22T12:34:27;100773.06;;;13.12;71.38
84049;BME280;74136;51.684;7.862;2024-03-22T12:36:55;100772.34;;;13.05;71.26
84049;BME280;74136;51.684;7.862;2024-03-22T12:39:21;100763.69;;;12.85;72.14
84049;BME280;74136;51.684;7.862;2024-03-22T12:41:47;100768.97;;;12.87;72.60
84049;BME280;74136;51.684;7.862;2024-03-22T12:44:14;100765.28;;;12.81;72.91
84049;BME280;74136;51.684;7.862;2024-03-22T12:46:40;100770.59;;;12.71;73.03
84049;BME280;74136;51.684;7.862;2024-03-22T12:49:11;100764.03;;;12.60;73.28
84049;BME280;74136;51.684;7.862;2024-03-22T12:51:37;100770.91;;;12.58;73.48
84049;BME280;74136;51.684;7.862;2024-03-22T12:54:04;100764.75;;;12.67;74.27